Time;durP1;ratioP1;P1;durP2;ratioP2;P2;SDS_P1;SDS_P2;PMS_P1;PMS_P2;Temp;Humidity;BMP_temperature;BMP_pressure;BME280_temperature;BME280_humidity;BME280_pressure;Samples;Min_cycle;Max_cycle;Signal;HPM_P1;HPM_P2
2021/07/14 00:02:07;;;;;;;37.33;33.50;;;19.80;99.90;;;;;;5096097;28;20185;-81
2021/07/14 00:04:35;;;;;;;35.07;31.47;;;19.80;99.90;;;;;;5075770;28;20213;-82
2021/07/14 00:07:03;;;;;;;34.60;30.97;;;19.80;99.90;;;;;;5097524;28;20466;-82
2021/07/14 00:09:29;;;;;;;33.23;29.93;;;19.80;99.90;;;;;;5096096;28;20442;-80
2021/07/14 00:11:58;;;;;;;32.47;29.20;;;19.80;99.90;;;;;;5079220;28;20414;-81
2021/07/14 00:14:34;;;;;;;31.67;28.47;;;19.70;99.90;;;;;;5096798;28;20235;-81
2021/07/14 00:22:24;;;;;;;32.80;29.50;;;19.70;99.90;;;;;;5094685;28;20430;-79
2021/07/14 00:24:49;;;;;;;34.60;31.10;;;19.70;99.90;;;;;;5095828;28;20540;-81
2021/07/14 00:27:16;;;;;;;34.57;31.00;;;19.70;99.90;;;;;;5060968;28;20216;-81
2021/07/14 00:29:58;;;;;;;29.50;26.50;;;19.60;99.90;;;;;;5059899;28;20185;-81
2021/07/14 00:32:24;;;;;;;32.97;29.57;;;19.60;99.90;;;;;;5078525;28;20963;-80
2021/07/14 00:34:51;;;;;;;33.33;30.00;;;19.60;99.90;;;;;;5089886;28;20484;-79
2021/07/14 00:37:20;;;;;;;34.90;31.40;;;19.60;99.90;;;;;;5092835;28;20457;-82
2021/07/14 00:39:55;;;;;;;33.80;30.30;;;19.60;99.90;;;;;;5092843;28;20516;-82
2021/07/14 00:42:21;;;;;;;35.30;31.63;;;19.60;99.90;;;;;;5079045;28;20750;-81
2021/07/14 00:44:47;;;;;;;35.83;31.93;;;19.60;99.90;;;;;;5095298;28;20453;-82
2021/07/14 00:47:13;;;;;;;35.27;31.70;;;19.60;99.90;;;;;;5095452;28;20466;-81
2021/07/14 00:49:38;;;;;;;36.47;32.60;;;19.60;99.90;;;;;;5093774;28;20192;-82
2021/07/14 00:52:05;;;;;;;35.30;31.50;;;19.60;99.90;;;;;;5073460;28;20197;-81
2021/07/14 00:54:30;;;;;;;35.57;31.87;;;19.60;99.90;;;;;;5089435;28;20242;-81
2021/07/14 00:56:56;;;;;;;35.70;31.90;;;19.60;99.90;;;;;;5096841;28;20443;-81
2021/07/14 00:59:22;;;;;;;34.77;30.80;;;19.60;99.90;;;;;;5096795;28;20195;-82
2021/07/14 01:01:48;;;;;;;32.60;29.20;;;19.50;99.90;;;;;;5096015;28;20189;-80
2021/07/14 01:04:23;;;;;;;35.17;31.67;;;19.50;99.90;;;;;;5048835;28;20684;-80
2021/07/14 01:07:11;;;;;;;34.67;30.73;;;19.50;99.90;;;;;;5091371;28;20482;-80
2021/07/14 01:10:08;;;;;;;34.67;31.10;;;19.50;99.90;;;;;;5071410;28;20425;-82
2021/07/14 01:13:00;;;;;;;31.93;28.60;;;19.50;99.90;;;;;;5073817;28;20427;-81
2021/07/14 01:15:29;;;;;;;35.30;31.80;;;19.50;99.90;;;;;;5094967;28;20517;-79
2021/07/14 01:18:03;;;;;;;38.37;34.17;;;19.50;99.90;;;;;;5079066;28;20462;-80
2021/07/14 01:20:43;;;;;;;35.37;31.77;;;19.60;99.90;;;;;;5094943;28;20450;-81
2021/07/14 01:23:36;;;;;;;35.50;31.90;;;19.50;99.90;;;;;;5072787;28;20433;-81
2021/07/14 01:26:31;;;;;;;36.30;32.40;;;19.50;99.90;;;;;;5083654;28;20920;-82
2021/07/14 01:29:00;;;;;;;34.37;30.83;;;19.50;99.90;;;;;;5096898;28;20507;-81
2021/07/14 01:31:26;;;;;;;37.17;33.20;;;19.50;99.90;;;;;;5078376;28;21011;-80
2021/07/14 01:33:57;;;;;;;37.63;33.53;;;19.50;99.90;;;;;;5055589;28;20459;-82
2021/07/14 01:36:23;;;;;;;37.43;33.43;;;19.50;99.90;;;;;;5095823;28;20586;-81
2021/07/14 01:38:49;;;;;;;39.87;35.67;;;19.50;99.90;;;;;;5074670;28;20484;-80
2021/07/14 01:41:17;;;;;;;37.57;33.50;;;19.50;99.90;;;;;;5071882;28;20641;-80
2021/07/14 01:43:52;;;;;;;37.23;32.50;;;19.50;99.90;;;;;;5095796;28;20189;-80
2021/07/14 01:46:19;;;;;;;37.20;33.30;;;19.50;99.90;;;;;;5096062;28;20918;-81
2021/07/14 01:48:47;;;;;;;35.60;31.90;;;19.50;99.90;;;;;;5060032;28;20458;-82
2021/07/14 01:51:14;;;;;;;36.57;32.67;;;19.50;99.90;;;;;;5076517;28;20437;-81
2021/07/14 01:53:41;;;;;;;37.00;33.03;;;19.50;99.90;;;;;;5095538;28;20415;-79
2021/07/14 01:56:10;;;;;;;38.17;34.07;;;19.50;99.90;;;;;;5077040;28;20533;-79
2021/07/14 01:58:44;;;;;;;34.97;31.30;;;19.50;99.90;;;;;;5095687;28;20427;-79
2021/07/14 02:01:13;;;;;;;36.87;32.97;;;19.50;99.90;;;;;;5094522;28;20487;-80
2021/07/14 02:03:43;;;;;;;38.40;34.30;;;19.50;99.90;;;;;;5093672;28;20427;-82
2021/07/14 02:06:10;;;;;;;34.47;30.73;;;19.50;99.90;;;;;;5088998;28;20426;-82
2021/07/14 02:08:38;;;;;;;34.57;30.87;;;19.50;99.90;;;;;;5092685;28;20476;-81
2021/07/14 02:11:04;;;;;;;33.30;29.87;;;19.50;99.90;;;;;;5076763;28;20422;-81
2021/07/14 02:13:32;;;;;;;34.00;30.43;;;19.50;99.90;;;;;;5094194;28;20414;-81
2021/07/14 02:16:00;;;;;;;34.47;30.87;;;19.50;99.90;;;;;;5095752;28;20521;-81
2021/07/14 02:18:33;;;;;;;33.90;30.30;;;19.50;99.90;;;;;;5077093;28;20434;-81
2021/07/14 02:20:59;;;;;;;35.63;31.90;;;19.50;99.90;;;;;;5089937;28;20519;-79
2021/07/14 02:23:25;;;;;;;34.00;30.47;;;19.50;99.90;;;;;;5072220;28;20433;-80
2021/07/14 02:25:51;;;;;;;32.67;29.17;;;19.50;99.90;;;;;;5076658;28;20434;-80
2021/07/14 02:28:17;;;;;;;31.70;28.30;;;19.50;99.90;;;;;;5093660;28;20270;-81
2021/07/14 02:30:44;;;;;;;31.57;28.27;;;19.50;99.90;;;;;;5095104;28;20423;-80
2021/07/14 02:33:12;;;;;;;32.60;29.27;;;19.50;99.90;;;;;;5093791;28;20210;-82
2021/07/14 02:35:43;;;;;;;32.20;28.80;;;19.50;99.90;;;;;;5083394;28;20519;-80
2021/07/14 02:38:24;;;;;;;30.97;27.80;;;19.50;99.90;;;;;;5092889;28;20437;-80
2021/07/14 02:41:15;;;;;;;32.07;28.70;;;19.50;99.90;;;;;;5094188;28;20457;-81
2021/07/14 02:43:45;;;;;;;28.33;25.63;;;19.50;99.90;;;;;;5080776;28;20418;-80
2021/07/14 02:46:14;;;;;;;31.93;28.63;;;19.50;99.90;;;;;;5077402;28;20429;-79
2021/07/14 02:48:44;;;;;;;32.20;28.90;;;19.50;99.90;;;;;;5059891;28;20487;-80
2021/07/14 02:51:14;;;;;;;31.97;28.77;;;19.50;99.90;;;;;;5087448;28;20441;-82
2021/07/14 02:53:46;;;;;;;32.17;28.97;;;19.50;99.90;;;;;;5093337;28;20473;-79
2021/07/14 02:56:18;;;;;;;30.37;27.20;;;19.50;99.90;;;;;;5090694;28;20434;-82
2021/07/14 02:58:49;;;;;;;31.97;28.63;;;19.50;99.90;;;;;;5073502;28;20430;-79
2021/07/14 03:01:16;;;;;;;30.57;27.37;;;19.50;99.90;;;;;;5091394;28;20428;-81
2021/07/14 03:03:43;;;;;;;31.40;28.17;;;19.40;99.90;;;;;;5097444;28;20535;-79
2021/07/14 03:06:09;;;;;;;31.70;28.30;;;19.50;99.90;;;;;;5078053;28;20434;-79
2021/07/14 03:08:35;;;;;;;31.10;27.97;;;19.50;99.90;;;;;;5096992;28;20465;-81
2021/07/14 03:11:03;;;;;;;30.93;27.83;;;19.40;99.90;;;;;;5098556;28;21067;-80
2021/07/14 03:13:30;;;;;;;29.63;26.60;;;19.50;99.90;;;;;;5080334;28;21009;-81
2021/07/14 03:15:57;;;;;;;30.90;27.60;;;19.40;99.90;;;;;;5097099;28;20434;-81
2021/07/14 03:18:30;;;;;;;33.87;30.17;;;19.40;99.90;;;;;;5096853;28;20512;-81
2021/07/14 03:20:58;;;;;;;33.97;27.90;;;19.40;99.90;;;;;;5086397;28;20434;-81
2021/07/14 03:23:24;;;;;;;31.40;28.10;;;19.40;99.90;;;;;;5098512;28;20923;-81
2021/07/14 03:25:54;;;;;;;32.90;29.57;;;19.40;99.90;;;;;;5098438;28;20502;-80
2021/07/14 03:28:21;;;;;;;31.33;28.13;;;19.40;99.90;;;;;;5079761;28;20462;-81
2021/07/14 03:30:47;;;;;;;30.27;27.17;;;19.30;99.90;;;;;;5096011;28;20422;-80
2021/07/14 03:33:14;;;;;;;33.47;29.60;;;19.40;99.90;;;;;;5078008;28;20446;-80
2021/07/14 03:35:41;;;;;;;28.93;25.90;;;19.40;99.90;;;;;;5095631;28;20454;-80
2021/07/14 03:38:10;;;;;;;30.37;27.17;;;19.40;99.90;;;;;;5093081;28;20478;-81
2021/07/14 03:40:40;;;;;;;34.00;28.67;;;19.40;99.90;;;;;;5097901;28;20418;-81
2021/07/14 03:43:07;;;;;;;31.57;28.17;;;19.40;99.90;;;;;;5094094;28;20414;-80
2021/07/14 03:45:35;;;;;;;29.70;26.60;;;19.40;99.90;;;;;;5078521;28;20521;-82
2021/07/14 03:48:01;;;;;;;29.40;26.40;;;19.40;99.90;;;;;;5096497;28;20468;-82
2021/07/14 03:50:28;;;;;;;27.90;25.00;;;19.40;99.90;;;;;;5096526;28;20422;-81
2021/07/14 03:52:54;;;;;;;28.93;26.03;;;19.40;99.90;;;;;;5096884;28;20541;-80
2021/07/14 03:55:20;;;;;;;32.43;29.10;;;19.40;99.90;;;;;;5097198;28;20886;-82
2021/07/14 03:57:45;;;;;;;32.13;28.67;;;19.40;99.90;;;;;;5098577;28;20422;-81
2021/07/14 04:00:12;;;;;;;32.70;29.17;;;19.40;99.90;;;;;;5096966;28;20508;-82
2021/07/14 04:02:43;;;;;;;34.73;30.80;;;19.40;99.90;;;;;;5096808;28;20230;-81
2021/07/14 04:05:09;;;;;;;33.70;29.97;;;19.40;99.90;;;;;;5070578;28;20454;-81
2021/07/14 04:07:37;;;;;;;34.00;29.77;;;19.40;99.90;;;;;;5058858;28;20478;-81
2021/07/14 04:10:03;;;;;;;32.93;28.87;;;19.40;99.90;;;;;;5077163;28;20415;-81
2021/07/14 04:12:30;;;;;;;34.60;30.73;;;19.40;99.90;;;;;;5094160;28;20422;-82
2021/07/14 04:14:55;;;;;;;33.13;29.53;;;19.40;99.90;;;;;;5096331;28;20435;-81
2021/07/14 04:17:21;;;;;;;33.53;29.97;;;19.30;99.90;;;;;;5074756;28;20420;-79
2021/07/14 04:19:47;;;;;;;35.60;31.03;;;19.40;99.90;;;;;;5070289;28;20188;-80
2021/07/14 04:22:13;;;;;;;36.53;31.10;;;19.30;99.90;;;;;;5090562;28;20196;-80
2021/07/14 04:24:40;;;;;;;32.50;29.00;;;19.30;99.90;;;;;;5087482;28;20270;-79
2021/07/14 04:27:07;;;;;;;38.47;32.90;;;19.30;99.90;;;;;;5097919;28;20450;-78
2021/07/14 04:29:33;;;;;;;33.80;30.10;;;19.30;99.90;;;;;;5097463;28;20911;-80
2021/07/14 04:31:59;;;;;;;32.30;28.57;;;19.30;99.90;;;;;;5057958;28;20511;-79
2021/07/14 04:34:24;;;;;;;35.73;30.00;;;19.40;99.90;;;;;;5087015;28;20796;-80
2021/07/14 04:36:51;;;;;;;34.67;30.80;;;19.40;99.90;;;;;;5072435;28;20200;-80
2021/07/14 04:39:17;;;;;;;33.50;29.57;;;19.40;99.90;;;;;;5096916;28;20302;-81
2021/07/14 04:41:43;;;;;;;33.97;30.27;;;19.30;99.90;;;;;;5097208;28;20414;-80
2021/07/14 04:44:11;;;;;;;33.70;30.03;;;19.30;99.90;;;;;;5095498;28;20443;-81
2021/07/14 04:46:37;;;;;;;34.93;29.37;;;19.30;99.90;;;;;;5094921;28;20184;-80
2021/07/14 04:49:03;;;;;;;33.03;29.50;;;19.40;99.90;;;;;;5097055;28;20458;-80
2021/07/14 04:51:29;;;;;;;32.13;28.60;;;19.40;99.90;;;;;;5093448;28;20785;-80
2021/07/14 04:53:55;;;;;;;33.80;28.10;;;19.40;99.90;;;;;;5079339;28;20425;-79
2021/07/14 04:56:21;;;;;;;32.63;27.57;;;19.40;99.90;;;;;;5096668;28;20206;-80
2021/07/14 04:58:48;;;;;;;30.70;27.30;;;19.30;99.90;;;;;;5095279;28;20415;-80
2021/07/14 05:01:15;;;;;;;29.77;26.57;;;19.40;99.90;;;;;;5090165;28;20415;-81
2021/07/14 05:03:45;;;;;;;28.70;25.60;;;19.30;99.90;;;;;;5049082;28;20419;-80
2021/07/14 05:06:14;;;;;;;33.83;26.97;;;19.30;99.90;;;;;;5076656;28;20434;-80
2021/07/14 05:08:40;;;;;;;28.97;25.17;;;19.30;99.90;;;;;;5095439;28;20546;-80
2021/07/14 05:11:06;;;;;;;30.27;25.90;;;19.30;99.90;;;;;;5095402;28;20418;-79
2021/07/14 05:13:31;;;;;;;28.33;25.20;;;19.30;99.90;;;;;;5095688;28;20420;-80
2021/07/14 05:15:57;;;;;;;30.27;27.00;;;19.40;99.90;;;;;;5094494;28;20291;-80
2021/07/14 05:18:23;;;;;;;32.03;26.10;;;19.30;99.90;;;;;;5066399;28;20196;-81
2021/07/14 05:20:49;;;;;;;29.13;25.70;;;19.30;99.90;;;;;;5093495;28;20204;-81
2021/07/14 05:23:15;;;;;;;31.00;27.20;;;19.30;99.90;;;;;;5095892;28;20485;-81
2021/07/14 05:25:41;;;;;;;28.40;25.43;;;19.30;99.90;;;;;;5083999;28;20276;-80
2021/07/14 05:28:06;;;;;;;30.57;27.27;;;19.30;99.90;;;;;;5095221;28;20720;-80
2021/07/14 05:30:32;;;;;;;35.80;26.83;;;19.30;99.90;;;;;;5096026;28;20250;-80
2021/07/14 05:32:58;;;;;;;30.57;27.23;;;19.30;99.90;;;;;;5074027;28;20177;-79
2021/07/14 05:35:24;;;;;;;30.27;26.30;;;19.30;99.90;;;;;;5092147;28;20447;-80
2021/07/14 05:37:50;;;;;;;32.40;28.30;;;19.30;99.90;;;;;;5072552;28;20188;-81
2021/07/14 05:40:16;;;;;;;29.47;25.70;;;19.40;99.90;;;;;;5076436;28;20492;-81
2021/07/14 05:42:41;;;;;;;29.17;25.23;;;19.40;99.90;;;;;;5075653;28;20691;-78
2021/07/14 05:45:08;;;;;;;30.40;24.77;;;19.40;99.90;;;;;;5093959;28;20231;-80
2021/07/14 05:47:33;;;;;;;29.33;24.40;;;19.40;99.90;;;;;;5095085;28;20212;-79
2021/07/14 05:49:59;;;;;;;29.20;24.70;;;19.40;99.90;;;;;;5077470;28;20433;-80
2021/07/14 05:52:25;;;;;;;29.20;24.93;;;19.40;99.90;;;;;;5092829;28;20188;-80
2021/07/14 05:54:50;;;;;;;30.20;26.90;;;19.40;99.90;;;;;;5087756;28;20738;-80
2021/07/14 05:57:16;;;;;;;29.83;24.87;;;19.40;99.90;;;;;;5095310;28;20193;-80
2021/07/14 05:59:42;;;;;;;29.90;25.63;;;19.40;99.90;;;;;;5062415;28;20189;-79
2021/07/14 06:02:08;;;;;;;29.80;26.30;;;19.40;99.90;;;;;;5080098;28;20193;-79
2021/07/14 06:04:33;;;;;;;29.43;26.10;;;19.40;99.90;;;;;;5080055;28;20256;-81
2021/07/14 06:06:59;;;;;;;31.73;26.97;;;19.40;99.90;;;;;;5058632;28;20445;-79
2021/07/14 06:09:26;;;;;;;30.57;26.70;;;19.40;99.90;;;;;;5094906;28;20189;-79
2021/07/14 06:11:51;;;;;;;31.90;26.80;;;19.40;99.90;;;;;;5093514;28;20650;-80
2021/07/14 06:14:17;;;;;;;29.17;25.53;;;19.40;99.90;;;;;;5093446;28;20456;-79
2021/07/14 06:16:43;;;;;;;30.90;26.80;;;19.40;99.90;;;;;;5068540;28;20180;-80
2021/07/14 06:19:09;;;;;;;33.23;27.27;;;19.40;99.90;;;;;;5076500;28;20558;-79
2021/07/14 06:21:35;;;;;;;32.47;28.40;;;19.40;99.90;;;;;;5076306;28;20191;-79
2021/07/14 06:24:00;;;;;;;32.03;27.97;;;19.40;99.90;;;;;;5088571;28;20434;-78
2021/07/14 06:26:26;;;;;;;27.83;24.67;;;19.40;99.90;;;;;;5093925;28;20184;-80
2021/07/14 06:28:52;;;;;;;28.17;24.00;;;19.40;99.90;;;;;;5093243;28;20204;-78
2021/07/14 06:31:18;;;;;;;26.30;21.30;;;19.40;99.90;;;;;;5093297;28;20305;-78
2021/07/14 06:33:43;;;;;;;32.70;26.77;;;19.40;99.90;;;;;;5080094;28;20649;-80
2021/07/14 06:36:09;;;;;;;26.10;20.90;;;19.40;99.90;;;;;;5075486;28;20192;-80
2021/07/14 06:38:35;;;;;;;28.83;23.33;;;19.50;99.90;;;;;;5075858;28;20189;-78
2021/07/14 06:41:01;;;;;;;25.80;21.70;;;19.40;99.90;;;;;;5084939;28;20184;-78
2021/07/14 06:43:41;;;;;;;26.90;22.17;;;19.40;99.90;;;;;;5076446;28;20248;-80
2021/07/14 06:46:09;;;;;;;27.00;23.23;;;19.40;99.90;;;;;;5078146;28;20434;-80
2021/07/14 06:48:34;;;;;;;26.10;23.07;;;19.40;99.90;;;;;;5081498;28;20472;-79
2021/07/14 06:51:00;;;;;;;28.00;20.73;;;19.40;99.90;;;;;;5056313;28;20471;-79
2021/07/14 06:53:25;;;;;;;23.20;20.50;;;19.40;99.90;;;;;;5074348;28;20204;-78
2021/07/14 06:55:52;;;;;;;24.53;20.03;;;19.50;99.90;;;;;;5067207;28;20213;-80
2021/07/14 06:58:18;;;;;;;25.13;20.97;;;19.50;99.90;;;;;;5077548;28;20673;-81
2021/07/14 07:00:43;;;;;;;22.57;20.17;;;19.50;99.90;;;;;;5070182;28;20510;-81
2021/07/14 07:03:09;;;;;;;22.17;19.77;;;19.40;99.90;;;;;;5087086;28;20182;-80
2021/07/14 07:05:36;;;;;;;23.53;19.37;;;19.40;99.90;;;;;;5067995;28;20215;-80
2021/07/14 07:08:02;;;;;;;24.00;21.20;;;19.50;99.90;;;;;;5093213;28;20583;-81
2021/07/14 07:10:27;;;;;;;22.00;19.70;;;19.40;99.90;;;;;;5077202;28;20422;-81
2021/07/14 07:12:53;;;;;;;20.33;18.13;;;19.50;99.90;;;;;;5095829;28;20414;-81
2021/07/14 07:15:19;;;;;;;18.57;16.67;;;19.50;99.90;;;;;;5093947;28;20208;-81
2021/07/14 07:17:46;;;;;;;21.20;17.83;;;19.50;99.90;;;;;;5059967;28;20251;-81
2021/07/14 07:20:14;;;;;;;19.63;17.63;;;19.50;99.90;;;;;;5076340;28;20429;-79
2021/07/14 07:22:40;;;;;;;20.53;16.90;;;19.50;99.90;;;;;;5058951;28;20437;-79
2021/07/14 07:25:07;;;;;;;19.97;17.80;;;19.50;99.90;;;;;;5076035;28;20445;-80
2021/07/14 07:27:35;;;;;;;19.53;17.20;;;19.50;99.90;;;;;;5058971;28;20465;-81
2021/07/14 07:30:04;;;;;;;19.37;17.30;;;19.50;99.90;;;;;;5074223;28;20411;-80
2021/07/14 07:32:30;;;;;;;20.10;17.27;;;19.50;99.90;;;;;;5076108;28;20414;-81
2021/07/14 07:34:56;;;;;;;19.17;17.17;;;19.50;99.90;;;;;;5075468;28;20499;-81
2021/07/14 07:37:21;;;;;;;19.43;17.53;;;19.50;99.90;;;;;;5075169;28;20188;-81
2021/07/14 07:39:48;;;;;;;19.07;16.90;;;19.50;99.90;;;;;;5075361;28;20184;-80
2021/07/14 07:42:14;;;;;;;17.63;15.80;;;19.50;99.90;;;;;;5076449;28;20191;-80
2021/07/14 07:44:40;;;;;;;18.37;15.60;;;19.50;99.90;;;;;;5058481;28;20427;-81
2021/07/14 07:47:06;;;;;;;16.43;14.40;;;19.60;99.90;;;;;;5093335;28;21128;-79
2021/07/14 07:49:32;;;;;;;16.23;14.03;;;19.60;99.90;;;;;;5078571;28;20276;-81
2021/07/14 07:51:57;;;;;;;17.37;14.67;;;19.50;99.90;;;;;;5061215;28;20257;-81
2021/07/14 07:54:23;;;;;;;15.90;14.30;;;19.60;99.90;;;;;;5097664;28;20227;-79
2021/07/14 07:56:49;;;;;;;17.40;14.00;;;19.50;99.90;;;;;;5087455;28;20208;-81
2021/07/14 07:59:14;;;;;;;14.03;12.63;;;19.60;99.90;;;;;;5098211;28;20641;-80
2021/07/14 08:01:40;;;;;;;15.30;13.70;;;19.50;99.90;;;;;;5096688;28;20180;-79
2021/07/14 08:04:06;;;;;;;16.70;13.80;;;19.60;99.90;;;;;;5077124;28;20204;-82
2021/07/14 08:06:32;;;;;;;16.10;13.70;;;19.60;99.90;;;;;;5084481;28;20180;-81
2021/07/14 08:08:58;;;;;;;16.47;14.67;;;19.50;99.90;;;;;;5078651;28;20545;-79
2021/07/14 08:11:23;;;;;;;16.60;14.83;;;19.50;99.90;;;;;;5046313;28;20299;-81
2021/07/14 08:13:49;;;;;;;17.80;14.73;;;19.50;99.90;;;;;;5078938;28;20187;-81
2021/07/14 08:16:15;;;;;;;18.17;14.90;;;19.50;99.90;;;;;;5096313;28;20259;-81
2021/07/14 08:18:40;;;;;;;22.73;17.67;;;19.60;99.90;;;;;;5077320;28;20739;-79
2021/07/14 08:21:06;;;;;;;20.27;16.70;;;19.60;99.90;;;;;;5079526;28;20192;-80
2021/07/14 08:23:32;;;;;;;21.20;17.63;;;19.60;99.90;;;;;;5077529;28;20219;-81
2021/07/14 08:25:57;;;;;;;22.47;18.30;;;19.60;99.90;;;;;;5097258;28;20204;-79
2021/07/14 08:28:23;;;;;;;23.93;19.57;;;19.60;99.90;;;;;;5077072;28;20270;-80
2021/07/14 08:30:49;;;;;;;26.77;18.60;;;19.60;99.90;;;;;;5091829;28;20495;-81
2021/07/14 08:33:15;;;;;;;26.33;19.17;;;19.60;99.90;;;;;;5096150;28;20241;-80
2021/07/14 08:35:41;;;;;;;25.37;19.33;;;19.60;99.90;;;;;;5094710;28;20442;-79
2021/07/14 08:38:08;;;;;;;24.40;19.17;;;19.60;99.90;;;;;;5077763;28;20213;-80
2021/07/14 08:40:35;;;;;;;27.30;19.80;;;19.60;99.90;;;;;;5078486;28;20189;-81
2021/07/14 08:43:02;;;;;;;28.83;20.60;;;19.60;99.90;;;;;;5075193;28;20438;-80
2021/07/14 08:45:27;;;;;;;25.37;19.03;;;19.50;99.90;;;;;;5096714;28;20781;-81
2021/07/14 08:47:53;;;;;;;24.77;19.30;;;19.60;99.90;;;;;;5094863;28;20466;-80
2021/07/14 08:50:20;;;;;;;23.40;19.23;;;19.60;99.90;;;;;;5058876;28;21005;-80
2021/07/14 08:52:48;;;;;;;23.80;18.20;;;19.60;99.90;;;;;;5061366;28;20821;-81
2021/07/14 08:55:17;;;;;;;26.53;19.50;;;19.60;99.90;;;;;;5077722;28;20454;-80
2021/07/14 08:57:44;;;;;;;28.73;19.13;;;19.60;99.90;;;;;;5093360;28;20520;-79
2021/07/14 09:00:17;;;;;;;25.67;19.57;;;19.60;99.90;;;;;;5093818;28;20945;-79
2021/07/14 09:02:43;;;;;;;27.77;21.50;;;19.60;99.90;;;;;;5092205;28;20442;-79
2021/07/14 09:05:10;;;;;;;24.27;19.90;;;19.60;99.90;;;;;;5085474;28;20442;-79
2021/07/14 09:07:37;;;;;;;28.17;21.70;;;19.60;99.90;;;;;;5094185;28;20957;-81
2021/07/14 09:10:09;;;;;;;27.00;19.37;;;19.60;99.90;;;;;;5091128;28;20484;-79
2021/07/14 09:12:42;;;;;;;30.97;22.37;;;19.60;99.90;;;;;;5096123;28;20430;-81
2021/07/14 09:15:11;;;;;;;29.00;22.10;;;19.60;99.90;;;;;;5077749;28;20441;-81
2021/07/14 09:17:49;;;;;;;31.90;23.87;;;19.60;99.90;;;;;;5074935;28;20411;-78
2021/07/14 09:20:21;;;;;;;32.50;24.30;;;19.60;99.90;;;;;;5061456;28;20418;-79
2021/07/14 09:22:59;;;;;;;35.23;24.43;;;19.60;99.90;;;;;;5065602;28;20427;-80
2021/07/14 09:25:25;;;;;;;33.90;24.57;;;19.60;99.90;;;;;;5092720;28;20441;-80
2021/07/14 09:28:00;;;;;;;35.60;24.80;;;19.60;99.90;;;;;;5074572;28;20459;-79
2021/07/14 09:30:29;;;;;;;32.77;23.40;;;19.70;99.90;;;;;;5076130;28;20183;-80
2021/07/14 09:33:00;;;;;;;30.30;22.60;;;19.60;99.90;;;;;;5095831;28;20465;-79
2021/07/14 09:35:47;;;;;;;33.43;23.33;;;19.60;99.90;;;;;;5061905;28;20975;-79
2021/07/14 09:38:15;;;;;;;30.47;22.63;;;19.70;99.90;;;;;;5051095;28;20427;-80
2021/07/14 09:40:45;;;;;;;33.80;24.73;;;19.60;99.90;;;;;;5093907;28;20422;-78
2021/07/14 09:43:16;;;;;;;34.67;23.67;;;19.70;99.90;;;;;;5089525;28;20465;-80
2021/07/14 09:45:51;;;;;;;32.00;22.67;;;19.70;99.90;;;;;;5094851;28;20439;-80
2021/07/14 09:48:25;;;;;;;32.07;23.50;;;19.70;99.90;;;;;;5095007;28;20834;-80
2021/07/14 09:50:54;;;;;;;34.07;21.87;;;19.70;99.90;;;;;;5094440;28;20430;-79
2021/07/14 09:53:22;;;;;;;32.57;23.87;;;19.70;99.90;;;;;;5074601;28;20466;-79
2021/07/14 09:55:50;;;;;;;51.37;24.70;;;19.70;99.90;;;;;;5074578;28;20459;-80
2021/07/14 09:58:27;;;;;;;31.50;23.80;;;19.70;99.90;;;;;;5065479;28;20425;-79
2021/07/14 10:00:59;;;;;;;359.50;51.17;;;19.70;99.90;;;;;;5090854;28;20782;-80
2021/07/14 10:03:28;;;;;;;34.53;23.60;;;19.70;99.90;;;;;;5093618;28;20448;-78
2021/07/14 10:06:03;;;;;;;31.50;22.50;;;19.70;99.90;;;;;;5060866;28;20435;-79
2021/07/14 10:08:29;;;;;;;29.97;21.60;;;19.80;99.90;;;;;;5093860;28;20973;-80
2021/07/14 10:11:22;;;;;;;32.27;21.90;;;19.80;99.90;;;;;;5093361;28;20421;-81
2021/07/14 10:14:06;;;;;;;29.30;22.13;;;19.80;99.90;;;;;;5095488;28;20448;-80
2021/07/14 10:16:38;;;;;;;32.87;22.00;;;19.80;99.90;;;;;;5094078;28;20429;-80
2021/07/14 10:19:05;;;;;;;29.50;22.07;;;19.80;99.90;;;;;;5077246;28;20539;-79
2021/07/14 10:21:34;;;;;;;30.10;22.53;;;19.80;99.90;;;;;;5095545;28;20953;-79
2021/07/14 10:24:00;;;;;;;27.20;21.57;;;19.80;99.90;;;;;;5072352;28;20837;-80
2021/07/14 10:26:27;;;;;;;30.50;22.23;;;19.80;99.90;;;;;;5076103;28;20419;-79
2021/07/14 10:28:55;;;;;;;27.30;21.47;;;19.80;99.90;;;;;;5089778;28;20522;-80
2021/07/14 10:31:23;;;;;;;32.13;23.43;;;19.80;99.90;;;;;;5093949;28;20426;-80
2021/07/14 10:33:53;;;;;;;31.00;24.03;;;19.90;99.90;;;;;;5093831;28;20419;-78
2021/07/14 10:36:26;;;;;;;30.00;24.17;;;19.90;99.90;;;;;;5094094;28;20410;-80
2021/07/14 10:38:55;;;;;;;29.47;23.47;;;19.80;99.90;;;;;;5072894;28;20427;-81
2021/07/14 10:41:22;;;;;;;34.00;25.53;;;19.80;99.90;;;;;;5088820;28;20511;-80
2021/07/14 10:43:50;;;;;;;31.27;23.70;;;19.90;99.90;;;;;;5090171;28;20407;-79
2021/07/14 10:46:18;;;;;;;35.37;25.70;;;19.90;99.90;;;;;;5094050;28;20959;-78
2021/07/14 10:48:43;;;;;;;33.47;26.00;;;19.90;99.90;;;;;;5094089;28;20461;-79
2021/07/14 10:51:10;;;;;;;33.30;27.00;;;19.80;99.90;;;;;;5095291;28;21146;-80
2021/07/14 10:53:38;;;;;;;35.40;27.23;;;19.90;99.90;;;;;;5075887;28;20228;-81
2021/07/14 10:56:05;;;;;;;36.53;27.43;;;19.90;99.90;;;;;;5092240;28;20462;-80
2021/07/14 10:58:30;;;;;;;34.27;28.23;;;19.80;99.90;;;;;;5095675;28;20414;-80
2021/07/14 11:00:59;;;;;;;34.40;25.93;;;19.80;99.90;;;;;;5076553;28;20422;-79
2021/07/14 11:03:31;;;;;;;35.67;27.10;;;19.80;99.90;;;;;;5092923;28;20184;-80
2021/07/14 11:05:58;;;;;;;39.40;27.80;;;19.90;99.90;;;;;;5092826;28;20445;-80
2021/07/14 11:08:47;;;;;;;36.30;26.90;;;19.90;99.90;;;;;;5092892;28;20478;-80
2021/07/14 11:11:23;;;;;;;38.30;27.93;;;19.90;99.90;;;;;;5090850;28;20415;-80
2021/07/14 11:14:06;;;;;;;42.60;28.50;;;19.90;99.90;;;;;;5072066;28;20912;-80
2021/07/14 11:16:35;;;;;;;36.07;28.10;;;19.80;99.90;;;;;;5093109;28;20425;-79
2021/07/14 11:19:05;;;;;;;40.17;30.30;;;19.80;99.90;;;;;;5073192;28;20430;-79
2021/07/14 11:21:47;;;;;;;40.70;29.90;;;19.80;99.90;;;;;;5083787;28;20427;-80
2021/07/14 11:24:39;;;;;;;41.60;30.57;;;19.80;99.90;;;;;;5082765;28;20922;-79
2021/07/14 11:27:27;;;;;;;42.47;30.83;;;19.80;99.90;;;;;;5068656;28;20970;-79
2021/07/14 11:30:04;;;;;;;40.60;30.40;;;19.80;99.90;;;;;;5076325;28;20411;-79
2021/07/14 11:32:33;;;;;;;42.90;31.53;;;19.80;99.90;;;;;;5097148;28;20475;-78
2021/07/14 11:35:04;;;;;;;46.97;33.90;;;19.80;99.90;;;;;;5096797;28;20437;-78
2021/07/14 11:37:51;;;;;;;41.27;31.10;;;19.80;99.90;;;;;;5096577;28;20410;-80
2021/07/14 11:40:20;;;;;;;42.90;32.30;;;19.80;99.90;;;;;;5080868;28;20458;-79
2021/07/14 11:42:53;;;;;;;42.37;31.07;;;19.80;99.90;;;;;;5096757;28;20410;-79
2021/07/14 11:45:25;;;;;;;43.13;32.17;;;19.80;99.90;;;;;;5080322;28;20443;-80
2021/07/14 11:48:05;;;;;;;42.70;33.40;;;19.80;99.90;;;;;;5078359;28;20589;-80
2021/07/14 11:50:44;;;;;;;44.17;33.80;;;19.80;99.90;;;;;;5096898;28;20415;-80
2021/07/14 11:53:31;;;;;;;47.50;34.83;;;19.80;99.90;;;;;;5096478;28;20421;-80
2021/07/14 11:56:07;;;;;;;44.90;34.67;;;19.80;99.90;;;;;;5095643;28;20462;-80
2021/07/14 11:58:41;;;;;;;58.60;40.10;;;19.70;99.90;;;;;;5085779;28;20444;-80
2021/07/14 12:01:24;;;;;;;52.17;38.53;;;19.70;99.90;;;;;;5090879;28;20851;-79
2021/07/14 12:04:02;;;;;;;50.47;38.60;;;19.70;99.90;;;;;;5070966;28;20960;-80
2021/07/14 12:06:37;;;;;;;56.63;39.63;;;19.70;99.90;;;;;;5083263;28;20922;-79
2021/07/14 12:09:17;;;;;;;52.20;37.97;;;19.70;99.90;;;;;;5095944;28;20469;-81
2021/07/14 12:11:43;;;;;;;49.87;36.73;;;19.80;99.90;;;;;;5094763;28;20414;-80
2021/07/14 12:14:31;;;;;;;53.07;38.57;;;19.80;99.90;;;;;;5076222;28;20499;-80
2021/07/14 12:17:08;;;;;;;48.70;37.67;;;19.80;99.90;;;;;;5078625;28;20187;-79
2021/07/14 12:19:43;;;;;;;53.60;38.37;;;19.80;99.90;;;;;;5096311;28;20414;-80
2021/07/14 12:22:15;;;;;;;58.57;39.70;;;19.80;99.90;;;;;;5077661;28;20425;-79
2021/07/14 12:24:48;;;;;;;48.43;36.90;;;19.80;99.90;;;;;;5086029;28;20453;-80
2021/07/14 12:27:20;;;;;;;52.33;37.30;;;19.80;99.90;;;;;;5075601;28;20828;-80
2021/07/14 12:30:12;;;;;;;51.37;37.67;;;19.80;99.90;;;;;;5095070;28;20415;-79
2021/07/14 12:32:41;;;;;;;52.97;38.53;;;19.80;99.90;;;;;;5079608;28;20603;-80
2021/07/14 12:35:16;;;;;;;54.67;38.23;;;19.80;99.90;;;;;;5078063;28;20949;-81
2021/07/14 12:38:06;;;;;;;54.77;39.50;;;19.70;99.90;;;;;;5094809;28;20455;-81
2021/07/14 12:40:38;;;;;;;54.87;38.83;;;19.70;99.90;;;;;;5086421;28;20431;-80
2021/07/14 12:43:08;;;;;;;48.47;39.37;;;19.70;99.90;;;;;;5078205;28;20422;-81